createdAt,value
2023-01-13T00:00:04.458Z,1006.57
2023-01-13T00:05:03.113Z,1006.62
2023-01-13T00:10:03.333Z,1006.64
2023-01-13T00:15:04.746Z,1006.64
2023-01-13T00:20:03.287Z,1006.74
2023-01-13T00:25:03.072Z,1006.8
2023-01-13T00:30:03.439Z,1006.85
2023-01-13T00:35:03.173Z,1006.97
2023-01-13T00:40:03.253Z,1006.99
2023-01-13T00:45:03.166Z,1007.11
2023-01-13T00:50:03.980Z,1007.13
2023-01-13T00:55:03.108Z,1007.25
2023-01-13T01:00:03.249Z,1007.35
2023-01-13T01:05:03.209Z,1007.46
2023-01-13T01:10:04.447Z,1007.54
2023-01-13T01:15:03.175Z,1007.58
2023-01-13T01:20:03.349Z,1007.52
2023-01-13T01:25:03.084Z,1007.51
2023-01-13T01:30:03.169Z,1007.53
2023-01-13T01:35:03.127Z,1007.53
2023-01-13T01:40:03.320Z,1007.45
2023-01-13T01:45:03.293Z,1007.55
2023-01-13T01:50:03.467Z,1007.7
2023-01-13T01:55:03.168Z,1007.81
2023-01-13T02:00:03.181Z,1007.77
2023-01-13T02:05:03.043Z,1007.82
2023-01-13T02:10:03.316Z,1007.75
2023-01-13T02:15:03.075Z,1007.62
2023-01-13T02:20:03.210Z,1007.56
2023-01-13T02:25:03.043Z,1007.65
2023-01-13T02:30:03.318Z,1007.7
2023-01-13T02:35:03.041Z,1007.8
2023-01-13T02:40:03.421Z,1007.8
2023-01-13T02:45:03.009Z,1007.83
2023-01-13T02:50:03.593Z,1007.87
2023-01-13T02:55:03.008Z,1007.87
2023-01-13T03:00:03.377Z,1007.77
2023-01-13T03:05:03.146Z,1007.72
2023-01-13T03:10:03.227Z,1007.66
2023-01-13T03:15:03.091Z,1007.78
2023-01-13T03:20:03.484Z,1007.77
2023-01-13T03:25:03.036Z,1007.78
2023-01-13T03:30:03.234Z,1007.67
2023-01-13T03:35:03.089Z,1007.55
2023-01-13T03:40:03.253Z,1007.38
2023-01-13T03:45:03.093Z,1007.21
2023-01-13T03:50:03.165Z,1007.15
2023-01-13T03:55:03.036Z,1007.09
2023-01-13T04:00:03.152Z,1007.04
2023-01-13T04:05:03.048Z,1006.91
2023-01-13T04:10:03.981Z,1006.89
2023-01-13T04:15:03.040Z,1006.86
2023-01-13T04:20:03.286Z,1006.93
2023-01-13T04:25:03.374Z,1006.91
2023-01-13T04:30:08.348Z,1006.72
2023-01-13T04:35:03.144Z,1006.64
2023-01-13T04:40:03.363Z,1006.64
2023-01-13T04:45:03.015Z,1006.62
2023-01-13T04:50:03.187Z,1006.51
2023-01-13T04:55:03.025Z,1006.44
2023-01-13T05:00:03.261Z,1006.29
2023-01-13T05:05:03.080Z,1006.29
2023-01-13T05:10:03.197Z,1006.22
2023-01-13T05:15:03.039Z,1006.08
2023-01-13T05:20:03.321Z,1006.04
2023-01-13T05:25:03.026Z,1006.02
2023-01-13T05:30:03.236Z,1005.92
2023-01-13T05:35:02.986Z,1005.78
2023-01-13T05:40:03.241Z,1005.81
2023-01-13T05:45:03.020Z,1005.71
2023-01-13T05:50:03.260Z,1005.56
2023-01-13T05:55:03.054Z,1005.56
2023-01-13T06:00:03.296Z,1005.63
2023-01-13T06:05:03.037Z,1005.68
2023-01-13T06:10:03.206Z,1005.67
2023-01-13T06:15:03.113Z,1005.62
2023-01-13T06:20:03.238Z,1005.6
2023-01-13T06:25:03.025Z,1005.67
2023-01-13T06:30:03.155Z,1005.73
2023-01-13T06:35:05.349Z,1005.82
2023-01-13T06:40:03.290Z,1005.95
2023-01-13T06:45:03.164Z,1006.09
2023-01-13T06:50:03.171Z,1006.1
2023-01-13T06:55:03.273Z,1006.07
2023-01-13T07:00:03.195Z,1006.11
2023-01-13T07:05:02.976Z,1006.17
2023-01-13T07:10:03.175Z,1006.13
2023-01-13T07:15:03.076Z,1006.18
2023-01-13T07:20:03.242Z,1006.11
2023-01-13T07:25:03.078Z,1006.04
2023-01-13T07:30:03.213Z,1006.0
2023-01-13T07:35:03.029Z,1005.96
2023-01-13T07:40:04.248Z,1005.88
2023-01-13T07:45:03.026Z,1006.01
2023-01-13T07:50:03.133Z,1005.97
2023-01-13T07:55:03.005Z,1005.76
2023-01-13T08:00:03.247Z,1005.66
2023-01-13T08:05:03.788Z,1005.72
2023-01-13T08:10:03.379Z,1005.84
2023-01-13T08:15:03.001Z,1006.15
2023-01-13T08:20:03.345Z,1006.34
2023-01-13T08:25:03.027Z,1006.5
2023-01-13T08:30:04.330Z,1006.59
2023-01-13T08:35:03.021Z,1006.78
2023-01-13T08:40:03.347Z,1006.79
2023-01-13T08:45:03.002Z,1006.85
2023-01-13T08:50:03.190Z,1006.91
2023-01-13T08:55:03.043Z,1006.89
2023-01-13T09:00:08.239Z,1006.98
2023-01-13T09:05:03.012Z,1007.09
2023-01-13T09:10:03.249Z,1007.3
2023-01-13T09:15:03.108Z,1007.47
2023-01-13T09:20:03.254Z,1007.6
2023-01-13T09:25:03.148Z,1007.69
2023-01-13T09:30:03.154Z,1007.69
2023-01-13T09:35:03.169Z,1007.68
2023-01-13T09:40:03.205Z,1007.74
2023-01-13T09:45:03.256Z,1007.79
2023-01-13T09:50:04.155Z,1007.81
2023-01-13T09:55:03.026Z,1007.91
2023-01-13T10:00:03.291Z,1007.95
2023-01-13T10:05:03.117Z,1008.04
2023-01-13T10:10:03.257Z,1008.03
2023-01-13T10:15:03.081Z,1008.02
2023-01-13T10:20:03.215Z,1008.09
2023-01-13T10:25:03.176Z,1008.13
2023-01-13T10:30:03.362Z,1008.26
2023-01-13T10:35:03.057Z,1008.32
2023-01-13T10:40:03.253Z,1008.41
2023-01-13T10:45:03.106Z,1008.48
2023-01-13T10:50:03.333Z,1008.56
2023-01-13T10:55:03.060Z,1008.55
2023-01-13T11:00:03.201Z,1008.57
2023-01-13T11:05:03.095Z,1008.52
2023-01-13T11:10:03.207Z,1008.56
2023-01-13T11:15:03.056Z,1008.61
2023-01-13T11:20:03.442Z,1008.6
2023-01-13T11:25:08.117Z,1008.63
2023-01-13T11:30:03.169Z,1008.65
2023-01-13T11:35:03.051Z,1008.66
2023-01-13T11:40:03.307Z,1008.68
2023-01-13T11:45:03.099Z,1008.72
2023-01-13T11:50:03.281Z,1008.68
2023-01-13T11:55:03.026Z,1008.68
2023-01-13T12:00:03.381Z,1008.88
2023-01-13T12:05:03.071Z,1008.9
2023-01-13T12:10:03.944Z,1008.88
2023-01-13T12:15:03.115Z,1008.96
2023-01-13T12:20:03.305Z,1008.88
2023-01-13T12:25:03.230Z,1008.84
2023-01-13T12:30:03.228Z,1008.87
2023-01-13T12:35:03.082Z,1008.85
2023-01-13T12:40:03.289Z,1008.86
2023-01-13T12:45:03.114Z,1008.86
2023-01-13T12:50:03.310Z,1008.85
2023-01-13T12:55:03.105Z,1008.96
2023-01-13T13:00:03.334Z,1009.07
2023-01-13T13:05:03.102Z,1009.25
2023-01-13T13:10:03.219Z,1009.24
2023-01-13T13:15:03.663Z,1009.28
2023-01-13T13:20:03.316Z,1009.27
2023-01-13T13:25:03.003Z,1009.27
2023-01-13T13:30:03.316Z,1009.26
2023-01-13T13:35:03.118Z,1009.3
2023-01-13T13:40:03.236Z,1009.37
2023-01-13T13:45:03.037Z,1009.35
2023-01-13T13:50:03.233Z,1009.35
2023-01-13T13:55:02.988Z,1009.27
2023-01-13T14:00:03.354Z,1009.23
2023-01-13T14:05:03.022Z,1009.2
2023-01-13T14:10:03.199Z,1009.14
2023-01-13T14:15:03.048Z,1009.08
2023-01-13T14:20:03.359Z,1008.94
2023-01-13T14:25:03.056Z,1008.8
2023-01-13T14:30:03.211Z,1008.52
2023-01-13T14:35:03.051Z,1008.37
2023-01-13T14:40:03.558Z,1008.15
2023-01-13T14:45:02.994Z,1008.03
2023-01-13T14:50:03.150Z,1007.83
2023-01-13T14:55:03.003Z,1007.63
2023-01-13T15:00:03.300Z,1007.26
2023-01-13T15:05:03.222Z,1007.11
2023-01-13T15:10:03.211Z,1006.96
2023-01-13T15:15:02.947Z,1006.92
2023-01-13T15:20:03.343Z,1006.82
2023-01-13T15:25:02.952Z,1006.77
2023-01-13T15:30:03.386Z,1006.54
2023-01-13T15:35:03.133Z,1006.6
2023-01-13T15:40:03.241Z,1006.69
2023-01-13T15:45:03.097Z,1007.0
2023-01-13T15:50:03.043Z,1007.76
2023-01-13T15:55:03.012Z,1007.84
2023-01-13T16:00:03.121Z,1007.51
2023-01-13T16:05:02.960Z,1007.13
2023-01-13T16:10:03.313Z,1006.9
2023-01-13T16:15:03.036Z,1006.91
2023-01-13T16:20:03.273Z,1006.98
2023-01-13T16:25:04.057Z,1007.17
2023-01-13T16:30:03.321Z,1007.22
2023-01-13T16:35:03.044Z,1007.15
2023-01-13T16:40:03.492Z,1007.02
2023-01-13T16:45:03.102Z,1007.07
2023-01-13T16:50:03.354Z,1006.96
2023-01-13T16:55:03.164Z,1007.06
2023-01-13T17:00:03.293Z,1007.11
2023-01-13T17:05:04.097Z,1006.82
2023-01-13T17:10:03.325Z,1006.67
2023-01-13T17:15:03.201Z,1006.44
2023-01-13T17:20:03.216Z,1006.44
2023-01-13T17:25:03.093Z,1006.25
2023-01-13T17:30:04.271Z,1006.3
2023-01-13T17:35:03.175Z,1006.46
2023-01-13T17:40:03.311Z,1006.31
2023-01-13T17:45:03.279Z,1006.11
2023-01-13T17:50:03.333Z,1006.1
2023-01-13T17:55:03.149Z,1005.98
2023-01-13T18:00:03.292Z,1005.67
2023-01-13T18:05:03.104Z,1005.52
2023-01-13T18:15:03.284Z,1005.61
2023-01-13T18:20:03.288Z,1005.35
2023-01-13T18:25:03.060Z,1005.34
2023-01-13T18:30:04.091Z,1005.38
2023-01-13T18:35:05.924Z,1005.4
2023-01-13T18:40:03.186Z,1005.37
2023-01-13T18:45:03.094Z,1005.42
2023-01-13T18:50:03.302Z,1005.29
2023-01-13T18:55:03.136Z,1005.1
2023-01-13T19:00:03.310Z,1005.23
2023-01-13T19:05:03.113Z,1006.54
2023-01-13T19:10:03.502Z,1006.54
2023-01-13T19:15:03.172Z,1006.42
2023-01-13T19:20:03.496Z,1006.36
2023-01-13T19:25:03.287Z,1006.44
2023-01-13T19:30:08.364Z,1006.2
2023-01-13T19:35:03.353Z,1005.89
2023-01-13T19:40:03.276Z,1005.76
2023-01-13T19:45:03.092Z,1005.93
2023-01-13T19:50:03.359Z,1005.93
2023-01-13T19:55:03.131Z,1006.03
2023-01-13T20:00:03.233Z,1005.98
2023-01-13T20:05:03.074Z,1006.07
2023-01-13T20:10:03.276Z,1006.04
2023-01-13T20:15:03.070Z,1006.09
2023-01-13T20:20:03.315Z,1006.13
2023-01-13T20:25:03.142Z,1006.07
2023-01-13T20:30:03.279Z,1005.91
2023-01-13T20:35:03.161Z,1005.89
2023-01-13T20:40:03.238Z,1005.91
2023-01-13T20:45:08.158Z,1005.77
2023-01-13T20:50:04.263Z,1005.77
2023-01-13T20:55:03.199Z,1005.78
2023-01-13T21:00:03.295Z,1005.87
2023-01-13T21:05:03.158Z,1005.63
2023-01-13T21:10:03.387Z,1005.47
2023-01-13T21:15:08.124Z,1005.51
2023-01-13T21:20:04.511Z,1005.56
2023-01-13T21:25:03.185Z,1005.54
2023-01-13T21:30:03.329Z,1005.35
2023-01-13T21:35:04.200Z,1005.17
2023-01-13T21:40:03.207Z,1005.35
2023-01-13T21:45:03.117Z,1005.43
2023-01-13T21:50:03.323Z,1005.52
2023-01-13T21:55:03.062Z,1005.47
2023-01-13T22:00:03.409Z,1005.34
2023-01-13T22:05:03.126Z,1005.28
2023-01-13T22:10:03.292Z,1005.19
2023-01-13T22:15:03.431Z,1005.07
2023-01-13T22:20:03.584Z,1005.14
2023-01-13T22:25:04.413Z,1005.31
2023-01-13T22:30:03.394Z,1005.61
2023-01-13T22:35:03.297Z,1005.95
2023-01-13T22:40:03.522Z,1006.23
2023-01-13T22:45:03.342Z,1006.58
2023-01-13T22:50:03.517Z,1006.68
2023-01-13T22:55:03.114Z,1006.86
2023-01-13T23:00:08.433Z,1007.01
2023-01-13T23:05:04.303Z,1006.98
2023-01-13T23:10:03.496Z,1007.1
2023-01-13T23:15:03.518Z,1007.06
2023-01-13T23:20:03.481Z,1007.1
2023-01-13T23:25:03.264Z,1007.07
2023-01-13T23:30:03.580Z,1007.19
2023-01-13T23:35:03.474Z,1007.13
2023-01-13T23:40:03.344Z,1007.1
2023-01-13T23:45:03.556Z,1007.06
2023-01-13T23:50:03.247Z,1007.04
2023-01-13T23:55:03.485Z,1006.9
